sensor_id;sensor_type;location;lat;lon;timestamp;P1;durP1;ratioP1;P2;durP2;ratioP2
12165;SDS011;6146;48.128;11.476;2023-01-19T00:01:20;13.70;;;10.30;;
12165;SDS011;6146;48.128;11.476;2023-01-19T00:03:47;15.30;;;11.53;;
12165;SDS011;6146;48.128;11.476;2023-01-19T00:06:12;13.00;;;10.77;;
12165;SDS011;6146;48.128;11.476;2023-01-19T00:08:38;14.03;;;11.30;;
12165;SDS011;6146;48.128;11.476;2023-01-19T00:11:04;14.90;;;11.40;;
12165;SDS011;6146;48.128;11.476;2023-01-19T00:13:30;14.87;;;11.57;;
12165;SDS011;6146;48.128;11.476;2023-01-19T00:15:56;14.00;;;10.60;;
12165;SDS011;6146;48.128;11.476;2023-01-19T00:18:22;12.43;;;9.87;;
12165;SDS011;6146;48.128;11.476;2023-01-19T00:20:47;11.30;;;10.00;;
12165;SDS011;6146;48.128;11.476;2023-01-19T00:23:13;13.70;;;10.33;;
12165;SDS011;6146;48.128;11.476;2023-01-19T00:25:41;12.50;;;9.80;;
12165;SDS011;6146;48.128;11.476;2023-01-19T00:28:11;14.77;;;9.57;;
12165;SDS011;6146;48.128;11.476;2023-01-19T00:30:38;11.70;;;9.00;;
12165;SDS011;6146;48.128;11.476;2023-01-19T00:33:05;12.53;;;9.57;;
12165;SDS011;6146;48.128;11.476;2023-01-19T00:35:31;13.63;;;10.27;;
12165;SDS011;6146;48.128;11.476;2023-01-19T00:37:58;12.50;;;9.73;;
12165;SDS011;6146;48.128;11.476;2023-01-19T00:40:24;10.17;;;8.70;;
12165;SDS011;6146;48.128;11.476;2023-01-19T00:42:49;12.17;;;8.43;;
12165;SDS011;6146;48.128;11.476;2023-01-19T00:45:16;10.40;;;8.93;;
12165;SDS011;6146;48.128;11.476;2023-01-19T00:47:44;11.03;;;9.27;;
12165;SDS011;6146;48.128;11.476;2023-01-19T00:50:12;10.90;;;9.10;;
12165;SDS011;6146;48.128;11.476;2023-01-19T00:52:39;10.77;;;8.67;;
12165;SDS011;6146;48.128;11.476;2023-01-19T00:55:05;12.90;;;8.83;;
12165;SDS011;6146;48.128;11.476;2023-01-19T00:57:32;10.23;;;8.50;;
12165;SDS011;6146;48.128;11.476;2023-01-19T00:59:58;11.50;;;8.37;;
12165;SDS011;6146;48.128;11.476;2023-01-19T01:02:23;11.40;;;9.00;;
12165;SDS011;6146;48.128;11.476;2023-01-19T01:04:49;10.20;;;9.07;;
12165;SDS011;6146;48.128;11.476;2023-01-19T01:07:20;10.60;;;9.33;;
12165;SDS011;6146;48.128;11.476;2023-01-19T01:09:46;12.93;;;9.50;;
12165;SDS011;6146;48.128;11.476;2023-01-19T01:12:12;12.00;;;8.63;;
12165;SDS011;6146;48.128;11.476;2023-01-19T01:14:37;11.93;;;9.53;;
12165;SDS011;6146;48.128;11.476;2023-01-19T01:17:03;12.37;;;8.90;;
12165;SDS011;6146;48.128;11.476;2023-01-19T01:19:28;10.83;;;8.23;;
12165;SDS011;6146;48.128;11.476;2023-01-19T01:21:54;11.37;;;8.90;;
12165;SDS011;6146;48.128;11.476;2023-01-19T01:24:20;11.80;;;8.50;;
12165;SDS011;6146;48.128;11.476;2023-01-19T01:26:45;10.60;;;8.43;;
12165;SDS011;6146;48.128;11.476;2023-01-19T01:29:11;11.30;;;8.50;;
12165;SDS011;6146;48.128;11.476;2023-01-19T01:31:37;10.90;;;9.10;;
12165;SDS011;6146;48.128;11.476;2023-01-19T01:34:02;9.60;;;8.57;;
12165;SDS011;6146;48.128;11.476;2023-01-19T01:36:28;10.90;;;9.33;;
12165;SDS011;6146;48.128;11.476;2023-01-19T01:38:57;11.47;;;9.37;;
12165;SDS011;6146;48.128;11.476;2023-01-19T01:41:23;12.00;;;9.10;;
12165;SDS011;6146;48.128;11.476;2023-01-19T01:43:50;12.70;;;9.60;;
12165;SDS011;6146;48.128;11.476;2023-01-19T01:46:20;11.90;;;10.03;;
12165;SDS011;6146;48.128;11.476;2023-01-19T01:48:51;10.70;;;9.30;;
12165;SDS011;6146;48.128;11.476;2023-01-19T01:51:25;11.37;;;8.13;;
12165;SDS011;6146;48.128;11.476;2023-01-19T01:54:10;10.80;;;8.90;;
12165;SDS011;6146;48.128;11.476;2023-01-19T01:56:50;9.27;;;8.30;;
12165;SDS011;6146;48.128;11.476;2023-01-19T02:01:54;10.53;;;8.27;;
12165;SDS011;6146;48.128;11.476;2023-01-19T02:04:42;9.93;;;7.97;;
12165;SDS011;6146;48.128;11.476;2023-01-19T02:07:11;10.27;;;7.90;;
12165;SDS011;6146;48.128;11.476;2023-01-19T02:09:59;10.07;;;7.97;;
12165;SDS011;6146;48.128;11.476;2023-01-19T02:12:44;8.27;;;7.47;;
12165;SDS011;6146;48.128;11.476;2023-01-19T02:15:28;9.13;;;6.43;;
12165;SDS011;6146;48.128;11.476;2023-01-19T02:17:54;8.80;;;7.03;;
12165;SDS011;6146;48.128;11.476;2023-01-19T02:20:22;9.37;;;6.60;;
12165;SDS011;6146;48.128;11.476;2023-01-19T02:22:50;10.00;;;7.03;;
12165;SDS011;6146;48.128;11.476;2023-01-19T02:25:16;7.87;;;6.30;;
12165;SDS011;6146;48.128;11.476;2023-01-19T02:27:43;8.93;;;6.57;;
12165;SDS011;6146;48.128;11.476;2023-01-19T02:30:09;8.40;;;6.03;;
12165;SDS011;6146;48.128;11.476;2023-01-19T02:32:36;7.93;;;6.57;;
12165;SDS011;6146;48.128;11.476;2023-01-19T02:35:02;8.10;;;6.30;;
12165;SDS011;6146;48.128;11.476;2023-01-19T02:37:28;7.53;;;6.70;;
12165;SDS011;6146;48.128;11.476;2023-01-19T02:39:56;6.77;;;5.73;;
12165;SDS011;6146;48.128;11.476;2023-01-19T02:42:31;8.90;;;7.40;;
12165;SDS011;6146;48.128;11.476;2023-01-19T02:45:04;8.23;;;6.50;;
12165;SDS011;6146;48.128;11.476;2023-01-19T02:47:36;7.57;;;6.67;;
12165;SDS011;6146;48.128;11.476;2023-01-19T02:50:04;8.43;;;6.57;;
12165;SDS011;6146;48.128;11.476;2023-01-19T02:52:49;8.70;;;6.97;;
12165;SDS011;6146;48.128;11.476;2023-01-19T02:55:25;11.33;;;7.73;;
12165;SDS011;6146;48.128;11.476;2023-01-19T02:57:59;8.83;;;7.13;;
12165;SDS011;6146;48.128;11.476;2023-01-19T03:03:29;8.63;;;7.57;;
12165;SDS011;6146;48.128;11.476;2023-01-19T03:06:09;10.97;;;8.20;;
12165;SDS011;6146;48.128;11.476;2023-01-19T03:09:43;10.03;;;8.80;;
12165;SDS011;6146;48.128;11.476;2023-01-19T03:11:53;14.63;;;8.13;;
12165;SDS011;6146;48.128;11.476;2023-01-19T03:14:32;9.17;;;8.10;;
12165;SDS011;6146;48.128;11.476;2023-01-19T03:17:04;10.47;;;8.47;;
12165;SDS011;6146;48.128;11.476;2023-01-19T03:19:35;9.27;;;7.90;;
12165;SDS011;6146;48.128;11.476;2023-01-19T03:22:04;9.93;;;8.93;;
12165;SDS011;6146;48.128;11.476;2023-01-19T03:24:35;11.27;;;8.43;;
12165;SDS011;6146;48.128;11.476;2023-01-19T03:30:27;10.40;;;8.07;;
12165;SDS011;6146;48.128;11.476;2023-01-19T03:33:05;10.80;;;8.87;;
12165;SDS011;6146;48.128;11.476;2023-01-19T03:35:36;11.40;;;9.23;;
12165;SDS011;6146;48.128;11.476;2023-01-19T03:38:06;12.23;;;10.10;;
12165;SDS011;6146;48.128;11.476;2023-01-19T03:40:38;12.20;;;10.00;;
12165;SDS011;6146;48.128;11.476;2023-01-19T03:43:05;10.67;;;9.23;;
12165;SDS011;6146;48.128;11.476;2023-01-19T03:45:31;11.57;;;10.37;;
12165;SDS011;6146;48.128;11.476;2023-01-19T03:48:00;12.03;;;9.90;;
12165;SDS011;6146;48.128;11.476;2023-01-19T03:50:27;10.93;;;9.37;;
12165;SDS011;6146;48.128;11.476;2023-01-19T03:53:07;10.90;;;9.57;;
12165;SDS011;6146;48.128;11.476;2023-01-19T03:55:35;10.53;;;8.87;;
12165;SDS011;6146;48.128;11.476;2023-01-19T03:58:02;13.00;;;10.00;;
12165;SDS011;6146;48.128;11.476;2023-01-19T04:00:27;13.27;;;9.93;;
12165;SDS011;6146;48.128;11.476;2023-01-19T04:02:53;12.07;;;10.20;;
12165;SDS011;6146;48.128;11.476;2023-01-19T04:05:19;15.30;;;11.17;;
12165;SDS011;6146;48.128;11.476;2023-01-19T04:07:49;11.23;;;9.70;;
12165;SDS011;6146;48.128;11.476;2023-01-19T04:10:18;16.20;;;10.53;;
12165;SDS011;6146;48.128;11.476;2023-01-19T04:12:44;12.23;;;10.73;;
12165;SDS011;6146;48.128;11.476;2023-01-19T04:15:10;15.07;;;11.03;;
12165;SDS011;6146;48.128;11.476;2023-01-19T04:17:36;15.30;;;11.33;;
12165;SDS011;6146;48.128;11.476;2023-01-19T04:20:02;14.57;;;11.07;;
12165;SDS011;6146;48.128;11.476;2023-01-19T04:22:28;14.47;;;11.70;;
12165;SDS011;6146;48.128;11.476;2023-01-19T04:24:54;13.77;;;11.23;;
12165;SDS011;6146;48.128;11.476;2023-01-19T04:27:20;11.20;;;9.87;;
12165;SDS011;6146;48.128;11.476;2023-01-19T04:29:45;12.20;;;10.77;;
12165;SDS011;6146;48.128;11.476;2023-01-19T04:32:14;13.83;;;10.67;;
12165;SDS011;6146;48.128;11.476;2023-01-19T04:34:39;12.90;;;10.67;;
12165;SDS011;6146;48.128;11.476;2023-01-19T04:37:05;11.93;;;10.60;;
12165;SDS011;6146;48.128;11.476;2023-01-19T04:39:32;13.67;;;10.70;;
12165;SDS011;6146;48.128;11.476;2023-01-19T04:41:58;14.60;;;11.40;;
12165;SDS011;6146;48.128;11.476;2023-01-19T04:44:24;14.47;;;11.47;;
12165;SDS011;6146;48.128;11.476;2023-01-19T04:46:53;13.90;;;12.13;;
12165;SDS011;6146;48.128;11.476;2023-01-19T04:49:18;12.70;;;11.07;;
12165;SDS011;6146;48.128;11.476;2023-01-19T04:51:44;13.97;;;11.10;;
12165;SDS011;6146;48.128;11.476;2023-01-19T04:54:10;13.30;;;11.33;;
12165;SDS011;6146;48.128;11.476;2023-01-19T04:56:36;16.43;;;11.67;;
12165;SDS011;6146;48.128;11.476;2023-01-19T04:59:02;16.63;;;11.50;;
12165;SDS011;6146;48.128;11.476;2023-01-19T05:01:28;14.47;;;12.10;;
12165;SDS011;6146;48.128;11.476;2023-01-19T05:03:53;15.17;;;12.27;;
12165;SDS011;6146;48.128;11.476;2023-01-19T05:06:19;15.00;;;13.10;;
12165;SDS011;6146;48.128;11.476;2023-01-19T05:08:44;11.77;;;10.53;;
12165;SDS011;6146;48.128;11.476;2023-01-19T05:11:10;13.87;;;10.80;;
12165;SDS011;6146;48.128;11.476;2023-01-19T05:13:35;14.20;;;11.20;;
12165;SDS011;6146;48.128;11.476;2023-01-19T05:16:01;16.60;;;11.60;;
12165;SDS011;6146;48.128;11.476;2023-01-19T05:18:27;15.57;;;11.93;;
12165;SDS011;6146;48.128;11.476;2023-01-19T05:20:53;18.33;;;12.87;;
12165;SDS011;6146;48.128;11.476;2023-01-19T05:23:19;16.73;;;12.43;;
12165;SDS011;6146;48.128;11.476;2023-01-19T05:25:45;17.77;;;12.87;;
12165;SDS011;6146;48.128;11.476;2023-01-19T05:28:11;16.23;;;11.90;;
12165;SDS011;6146;48.128;11.476;2023-01-19T05:30:36;15.60;;;12.03;;
12165;SDS011;6146;48.128;11.476;2023-01-19T05:33:02;16.40;;;12.30;;
12165;SDS011;6146;48.128;11.476;2023-01-19T05:35:28;15.67;;;12.13;;
12165;SDS011;6146;48.128;11.476;2023-01-19T05:37:53;14.53;;;11.93;;
12165;SDS011;6146;48.128;11.476;2023-01-19T05:40:19;18.13;;;12.87;;
12165;SDS011;6146;48.128;11.476;2023-01-19T05:42:45;15.80;;;12.83;;
12165;SDS011;6146;48.128;11.476;2023-01-19T05:45:11;15.07;;;12.40;;
12165;SDS011;6146;48.128;11.476;2023-01-19T05:47:36;17.17;;;12.00;;
12165;SDS011;6146;48.128;11.476;2023-01-19T05:50:02;16.83;;;12.80;;
12165;SDS011;6146;48.128;11.476;2023-01-19T05:52:28;16.97;;;13.97;;
12165;SDS011;6146;48.128;11.476;2023-01-19T05:54:54;16.40;;;12.73;;
12165;SDS011;6146;48.128;11.476;2023-01-19T05:57:19;15.40;;;12.70;;
12165;SDS011;6146;48.128;11.476;2023-01-19T05:59:45;19.47;;;14.37;;
12165;SDS011;6146;48.128;11.476;2023-01-19T06:02:11;17.77;;;13.43;;
12165;SDS011;6146;48.128;11.476;2023-01-19T06:04:37;16.63;;;13.30;;
12165;SDS011;6146;48.128;11.476;2023-01-19T06:07:03;17.47;;;13.30;;
12165;SDS011;6146;48.128;11.476;2023-01-19T06:09:30;16.07;;;13.90;;
12165;SDS011;6146;48.128;11.476;2023-01-19T06:11:56;17.40;;;13.77;;
12165;SDS011;6146;48.128;11.476;2023-01-19T06:14:23;18.30;;;14.20;;
12165;SDS011;6146;48.128;11.476;2023-01-19T06:16:50;16.63;;;14.27;;
12165;SDS011;6146;48.128;11.476;2023-01-19T06:19:15;17.20;;;13.57;;
12165;SDS011;6146;48.128;11.476;2023-01-19T06:21:41;19.13;;;13.63;;
12165;SDS011;6146;48.128;11.476;2023-01-19T06:24:13;17.73;;;13.90;;
12165;SDS011;6146;48.128;11.476;2023-01-19T06:26:39;16.40;;;13.67;;
12165;SDS011;6146;48.128;11.476;2023-01-19T06:29:06;18.57;;;14.40;;
12165;SDS011;6146;48.128;11.476;2023-01-19T06:31:32;19.60;;;14.87;;
12165;SDS011;6146;48.128;11.476;2023-01-19T06:33:58;19.97;;;13.83;;
12165;SDS011;6146;48.128;11.476;2023-01-19T06:36:23;18.77;;;14.00;;
12165;SDS011;6146;48.128;11.476;2023-01-19T06:38:49;16.93;;;13.50;;
12165;SDS011;6146;48.128;11.476;2023-01-19T06:41:14;14.73;;;13.00;;
12165;SDS011;6146;48.128;11.476;2023-01-19T06:43:40;18.90;;;13.70;;
12165;SDS011;6146;48.128;11.476;2023-01-19T06:46:05;16.20;;;12.97;;
12165;SDS011;6146;48.128;11.476;2023-01-19T06:48:31;20.07;;;13.60;;
12165;SDS011;6146;48.128;11.476;2023-01-19T06:50:57;19.07;;;13.30;;
12165;SDS011;6146;48.128;11.476;2023-01-19T06:53:22;18.80;;;13.40;;
12165;SDS011;6146;48.128;11.476;2023-01-19T06:55:48;16.90;;;13.47;;
12165;SDS011;6146;48.128;11.476;2023-01-19T06:58:13;16.63;;;13.13;;
12165;SDS011;6146;48.128;11.476;2023-01-19T07:00:39;19.37;;;14.23;;
12165;SDS011;6146;48.128;11.476;2023-01-19T07:03:05;24.50;;;14.03;;
12165;SDS011;6146;48.128;11.476;2023-01-19T07:05:32;17.97;;;13.63;;
12165;SDS011;6146;48.128;11.476;2023-01-19T07:07:59;15.87;;;12.77;;
12165;SDS011;6146;48.128;11.476;2023-01-19T07:10:24;16.50;;;13.40;;
12165;SDS011;6146;48.128;11.476;2023-01-19T07:12:50;19.60;;;14.07;;
12165;SDS011;6146;48.128;11.476;2023-01-19T07:15:16;19.67;;;13.17;;
12165;SDS011;6146;48.128;11.476;2023-01-19T07:17:43;17.43;;;13.23;;
12165;SDS011;6146;48.128;11.476;2023-01-19T07:20:10;19.17;;;13.47;;
12165;SDS011;6146;48.128;11.476;2023-01-19T07:22:41;18.30;;;12.87;;
12165;SDS011;6146;48.128;11.476;2023-01-19T07:25:10;16.60;;;12.40;;
12165;SDS011;6146;48.128;11.476;2023-01-19T07:27:37;15.50;;;12.37;;
12165;SDS011;6146;48.128;11.476;2023-01-19T07:30:04;18.23;;;12.63;;
12165;SDS011;6146;48.128;11.476;2023-01-19T07:32:30;18.00;;;13.00;;
12165;SDS011;6146;48.128;11.476;2023-01-19T07:34:56;16.53;;;12.47;;
12165;SDS011;6146;48.128;11.476;2023-01-19T07:37:21;16.00;;;12.77;;
12165;SDS011;6146;48.128;11.476;2023-01-19T07:39:47;15.80;;;12.23;;
12165;SDS011;6146;48.128;11.476;2023-01-19T07:42:12;15.03;;;12.43;;
12165;SDS011;6146;48.128;11.476;2023-01-19T07:44:38;14.40;;;11.67;;
12165;SDS011;6146;48.128;11.476;2023-01-19T07:47:04;16.50;;;11.90;;
12165;SDS011;6146;48.128;11.476;2023-01-19T07:49:36;16.00;;;12.87;;
12165;SDS011;6146;48.128;11.476;2023-01-19T07:52:02;16.73;;;12.43;;
12165;SDS011;6146;48.128;11.476;2023-01-19T07:54:28;16.50;;;12.30;;
12165;SDS011;6146;48.128;11.476;2023-01-19T07:56:53;13.37;;;11.27;;
12165;SDS011;6146;48.128;11.476;2023-01-19T07:59:19;14.43;;;11.13;;
12165;SDS011;6146;48.128;11.476;2023-01-19T08:01:45;15.60;;;11.40;;
12165;SDS011;6146;48.128;11.476;2023-01-19T08:04:10;13.77;;;11.70;;
12165;SDS011;6146;48.128;11.476;2023-01-19T08:06:37;14.30;;;11.33;;
12165;SDS011;6146;48.128;11.476;2023-01-19T08:09:03;15.50;;;11.67;;
12165;SDS011;6146;48.128;11.476;2023-01-19T08:11:31;13.30;;;11.90;;
12165;SDS011;6146;48.128;11.476;2023-01-19T08:13:57;14.27;;;11.80;;
12165;SDS011;6146;48.128;11.476;2023-01-19T08:16:23;12.13;;;10.47;;
12165;SDS011;6146;48.128;11.476;2023-01-19T08:18:49;13.90;;;10.83;;
12165;SDS011;6146;48.128;11.476;2023-01-19T08:21:15;13.63;;;10.33;;
12165;SDS011;6146;48.128;11.476;2023-01-19T08:23:40;14.13;;;11.40;;
12165;SDS011;6146;48.128;11.476;2023-01-19T08:26:25;14.57;;;11.63;;
12165;SDS011;6146;48.128;11.476;2023-01-19T08:28:56;14.80;;;10.23;;
12165;SDS011;6146;48.128;11.476;2023-01-19T08:31:23;13.00;;;10.80;;
12165;SDS011;6146;48.128;11.476;2023-01-19T08:33:49;13.77;;;10.67;;
12165;SDS011;6146;48.128;11.476;2023-01-19T08:36:15;13.13;;;10.67;;
12165;SDS011;6146;48.128;11.476;2023-01-19T08:38:42;13.20;;;10.27;;
12165;SDS011;6146;48.128;11.476;2023-01-19T08:41:09;11.63;;;9.83;;
12165;SDS011;6146;48.128;11.476;2023-01-19T08:43:35;15.67;;;10.70;;
12165;SDS011;6146;48.128;11.476;2023-01-19T08:46:02;12.83;;;10.20;;
12165;SDS011;6146;48.128;11.476;2023-01-19T08:48:28;10.73;;;9.47;;
12165;SDS011;6146;48.128;11.476;2023-01-19T08:50:54;11.10;;;9.87;;
12165;SDS011;6146;48.128;11.476;2023-01-19T08:53:20;14.57;;;10.97;;
12165;SDS011;6146;48.128;11.476;2023-01-19T08:55:47;13.30;;;10.37;;
12165;SDS011;6146;48.128;11.476;2023-01-19T08:58:14;11.13;;;9.53;;
12165;SDS011;6146;48.128;11.476;2023-01-19T09:00:40;11.27;;;10.13;;
12165;SDS011;6146;48.128;11.476;2023-01-19T09:03:06;13.50;;;10.77;;
12165;SDS011;6146;48.128;11.476;2023-01-19T09:05:35;11.63;;;9.60;;
12165;SDS011;6146;48.128;11.476;2023-01-19T09:08:02;10.63;;;9.50;;
12165;SDS011;6146;48.128;11.476;2023-01-19T09:10:32;12.03;;;9.20;;
12165;SDS011;6146;48.128;11.476;2023-01-19T09:13:02;12.13;;;9.27;;
12165;SDS011;6146;48.128;11.476;2023-01-19T09:15:32;12.00;;;9.70;;
12165;SDS011;6146;48.128;11.476;2023-01-19T09:18:01;11.40;;;8.80;;
12165;SDS011;6146;48.128;11.476;2023-01-19T09:20:27;10.33;;;9.10;;
12165;SDS011;6146;48.128;11.476;2023-01-19T09:22:55;9.80;;;8.33;;
12165;SDS011;6146;48.128;11.476;2023-01-19T09:25:21;10.30;;;9.20;;
12165;SDS011;6146;48.128;11.476;2023-01-19T09:27:47;11.50;;;9.20;;
12165;SDS011;6146;48.128;11.476;2023-01-19T09:30:12;9.90;;;8.87;;
12165;SDS011;6146;48.128;11.476;2023-01-19T09:32:38;10.50;;;8.30;;
12165;SDS011;6146;48.128;11.476;2023-01-19T09:35:04;12.03;;;9.70;;
12165;SDS011;6146;48.128;11.476;2023-01-19T09:37:30;9.83;;;8.83;;
12165;SDS011;6146;48.128;11.476;2023-01-19T09:39:55;10.00;;;8.80;;
12165;SDS011;6146;48.128;11.476;2023-01-19T09:45:19;10.13;;;8.67;;
12165;SDS011;6146;48.128;11.476;2023-01-19T09:47:52;14.00;;;9.43;;
12165;SDS011;6146;48.128;11.476;2023-01-19T09:50:26;10.07;;;8.27;;
12165;SDS011;6146;48.128;11.476;2023-01-19T09:53:12;9.30;;;8.17;;
12165;SDS011;6146;48.128;11.476;2023-01-19T09:55:44;12.77;;;8.90;;
12165;SDS011;6146;48.128;11.476;2023-01-19T09:58:11;10.33;;;8.43;;
12165;SDS011;6146;48.128;11.476;2023-01-19T10:00:40;10.53;;;7.93;;
12165;SDS011;6146;48.128;11.476;2023-01-19T10:03:13;8.60;;;7.57;;
12165;SDS011;6146;48.128;11.476;2023-01-19T10:08:17;9.10;;;8.20;;
12165;SDS011;6146;48.128;11.476;2023-01-19T10:10:56;8.90;;;7.70;;
12165;SDS011;6146;48.128;11.476;2023-01-19T10:13:36;8.00;;;6.93;;
12165;SDS011;6146;48.128;11.476;2023-01-19T10:19:16;7.73;;;6.93;;
12165;SDS011;6146;48.128;11.476;2023-01-19T10:21:50;8.07;;;6.80;;
12165;SDS011;6146;48.128;11.476;2023-01-19T10:24:19;7.87;;;7.07;;
12165;SDS011;6146;48.128;11.476;2023-01-19T10:26:50;8.90;;;7.00;;
12165;SDS011;6146;48.128;11.476;2023-01-19T10:29:25;8.30;;;7.27;;
12165;SDS011;6146;48.128;11.476;2023-01-19T10:32:01;8.30;;;7.50;;
12165;SDS011;6146;48.128;11.476;2023-01-19T10:34:46;8.10;;;7.30;;
12165;SDS011;6146;48.128;11.476;2023-01-19T10:39:46;7.70;;;6.90;;
12165;SDS011;6146;48.128;11.476;2023-01-19T10:42:17;6.97;;;6.27;;
12165;SDS011;6146;48.128;11.476;2023-01-19T10:44:44;7.40;;;6.70;;
12165;SDS011;6146;48.128;11.476;2023-01-19T10:47:13;7.00;;;6.30;;
12165;SDS011;6146;48.128;11.476;2023-01-19T10:49:43;7.30;;;6.50;;
12165;SDS011;6146;48.128;11.476;2023-01-19T10:52:18;7.77;;;6.20;;
12165;SDS011;6146;48.128;11.476;2023-01-19T10:54:56;6.90;;;6.13;;
12165;SDS011;6146;48.128;11.476;2023-01-19T10:57:27;6.50;;;5.87;;
12165;SDS011;6146;48.128;11.476;2023-01-19T11:00:03;6.67;;;5.97;;
12165;SDS011;6146;48.128;11.476;2023-01-19T11:02:30;7.00;;;6.30;;
12165;SDS011;6146;48.128;11.476;2023-01-19T11:04:57;7.40;;;6.40;;
12165;SDS011;6146;48.128;11.476;2023-01-19T11:07:43;6.87;;;5.87;;
12165;SDS011;6146;48.128;11.476;2023-01-19T11:12:40;9.23;;;7.13;;
12165;SDS011;6146;48.128;11.476;2023-01-19T11:15:14;7.00;;;5.93;;
12165;SDS011;6146;48.128;11.476;2023-01-19T11:18:04;7.80;;;7.00;;
12165;SDS011;6146;48.128;11.476;2023-01-19T11:23:24;7.67;;;6.83;;
12165;SDS011;6146;48.128;11.476;2023-01-19T11:25:58;7.03;;;5.97;;
12165;SDS011;6146;48.128;11.476;2023-01-19T11:28:30;7.30;;;6.50;;
12165;SDS011;6146;48.128;11.476;2023-01-19T11:30:59;7.70;;;5.70;;
12165;SDS011;6146;48.128;11.476;2023-01-19T11:33:35;6.90;;;6.20;;
12165;SDS011;6146;48.128;11.476;2023-01-19T11:36:14;6.63;;;5.97;;
12165;SDS011;6146;48.128;11.476;2023-01-19T11:38:43;6.53;;;5.80;;
12165;SDS011;6146;48.128;11.476;2023-01-19T11:41:20;7.97;;;6.53;;
12165;SDS011;6146;48.128;11.476;2023-01-19T11:44:33;7.17;;;5.43;;
12165;SDS011;6146;48.128;11.476;2023-01-19T11:46:46;6.00;;;5.40;;
12165;SDS011;6146;48.128;11.476;2023-01-19T11:49:22;6.07;;;5.03;;
12165;SDS011;6146;48.128;11.476;2023-01-19T11:52:09;5.50;;;5.00;;
12165;SDS011;6146;48.128;11.476;2023-01-19T11:54:56;6.53;;;5.23;;
12165;SDS011;6146;48.128;11.476;2023-01-19T11:57:44;5.57;;;4.97;;
12165;SDS011;6146;48.128;11.476;2023-01-19T12:06:13;5.67;;;5.07;;
12165;SDS011;6146;48.128;11.476;2023-01-19T12:11:45;6.63;;;5.30;;
12165;SDS011;6146;48.128;11.476;2023-01-19T12:14:21;6.47;;;5.70;;
12165;SDS011;6146;48.128;11.476;2023-01-19T12:16:51;5.67;;;5.00;;
12165;SDS011;6146;48.128;11.476;2023-01-19T12:19:22;5.17;;;4.67;;
12165;SDS011;6146;48.128;11.476;2023-01-19T12:21:53;5.90;;;4.73;;
12165;SDS011;6146;48.128;11.476;2023-01-19T12:26:57;6.77;;;5.10;;
12165;SDS011;6146;48.128;11.476;2023-01-19T12:29:26;5.30;;;4.80;;
12165;SDS011;6146;48.128;11.476;2023-01-19T12:39:53;6.57;;;4.83;;
12165;SDS011;6146;48.128;11.476;2023-01-19T12:42:20;5.67;;;4.83;;
12165;SDS011;6146;48.128;11.476;2023-01-19T12:44:46;6.27;;;4.87;;
12165;SDS011;6146;48.128;11.476;2023-01-19T12:49:48;7.70;;;4.70;;
12165;SDS011;6146;48.128;11.476;2023-01-19T12:54:55;5.53;;;4.73;;
12165;SDS011;6146;48.128;11.476;2023-01-19T12:57:40;7.40;;;4.80;;
12165;SDS011;6146;48.128;11.476;2023-01-19T13:13:20;5.50;;;4.97;;
12165;SDS011;6146;48.128;11.476;2023-01-19T13:15:51;7.13;;;4.93;;
12165;SDS011;6146;48.128;11.476;2023-01-19T13:18:21;6.20;;;5.17;;
12165;SDS011;6146;48.128;11.476;2023-01-19T13:20:56;7.23;;;5.57;;
12165;SDS011;6146;48.128;11.476;2023-01-19T13:23:29;5.57;;;4.40;;
12165;SDS011;6146;48.128;11.476;2023-01-19T13:26:19;5.17;;;4.43;;
12165;SDS011;6146;48.128;11.476;2023-01-19T13:28:51;5.90;;;4.53;;
12165;SDS011;6146;48.128;11.476;2023-01-19T13:31:19;6.00;;;5.43;;
12165;SDS011;6146;48.128;11.476;2023-01-19T13:33:49;8.53;;;5.00;;
12165;SDS011;6146;48.128;11.476;2023-01-19T13:36:21;6.80;;;4.90;;
12165;SDS011;6146;48.128;11.476;2023-01-19T13:38:56;7.13;;;5.13;;
12165;SDS011;6146;48.128;11.476;2023-01-19T13:41:25;6.77;;;5.23;;
12165;SDS011;6146;48.128;11.476;2023-01-19T13:43:57;6.37;;;4.90;;
12165;SDS011;6146;48.128;11.476;2023-01-19T13:46:25;4.73;;;3.87;;
12165;SDS011;6146;48.128;11.476;2023-01-19T13:48:56;7.20;;;3.60;;
12165;SDS011;6146;48.128;11.476;2023-01-19T13:51:25;3.67;;;3.00;;
12165;SDS011;6146;48.128;11.476;2023-01-19T13:53:56;3.83;;;2.80;;
12165;SDS011;6146;48.128;11.476;2023-01-19T13:56:26;3.57;;;2.60;;
12165;SDS011;6146;48.128;11.476;2023-01-19T14:01:29;3.27;;;2.70;;
12165;SDS011;6146;48.128;11.476;2023-01-19T14:03:56;2.90;;;2.60;;
12165;SDS011;6146;48.128;11.476;2023-01-19T14:09:06;4.13;;;3.00;;
12165;SDS011;6146;48.128;11.476;2023-01-19T14:11:45;3.27;;;2.80;;
12165;SDS011;6146;48.128;11.476;2023-01-19T14:14:30;3.73;;;3.20;;
12165;SDS011;6146;48.128;11.476;2023-01-19T14:16:56;6.13;;;3.20;;
12165;SDS011;6146;48.128;11.476;2023-01-19T14:19:21;4.63;;;3.30;;
12165;SDS011;6146;48.128;11.476;2023-01-19T14:21:57;4.30;;;3.67;;
12165;SDS011;6146;48.128;11.476;2023-01-19T14:24:24;5.10;;;3.33;;
12165;SDS011;6146;48.128;11.476;2023-01-19T14:26:53;4.90;;;3.40;;
12165;SDS011;6146;48.128;11.476;2023-01-19T14:29:33;4.77;;;3.80;;
12165;SDS011;6146;48.128;11.476;2023-01-19T14:36:53;7.00;;;3.73;;
12165;SDS011;6146;48.128;11.476;2023-01-19T14:39:20;5.50;;;4.20;;
12165;SDS011;6146;48.128;11.476;2023-01-19T14:41:49;5.97;;;4.57;;
12165;SDS011;6146;48.128;11.476;2023-01-19T14:44:29;4.57;;;3.80;;
12165;SDS011;6146;48.128;11.476;2023-01-19T14:46:57;5.47;;;4.03;;
12165;SDS011;6146;48.128;11.476;2023-01-19T14:52:00;5.23;;;4.40;;
12165;SDS011;6146;48.128;11.476;2023-01-19T14:54:44;4.33;;;3.83;;
12165;SDS011;6146;48.128;11.476;2023-01-19T14:57:14;6.77;;;4.10;;
12165;SDS011;6146;48.128;11.476;2023-01-19T14:59:39;5.97;;;4.33;;
12165;SDS011;6146;48.128;11.476;2023-01-19T15:02:06;4.73;;;4.23;;
12165;SDS011;6146;48.128;11.476;2023-01-19T15:04:32;9.30;;;4.50;;
12165;SDS011;6146;48.128;11.476;2023-01-19T15:06:57;5.50;;;4.20;;
12165;SDS011;6146;48.128;11.476;2023-01-19T15:09:23;5.90;;;4.73;;
12165;SDS011;6146;48.128;11.476;2023-01-19T15:11:49;4.47;;;4.07;;
12165;SDS011;6146;48.128;11.476;2023-01-19T15:14:16;5.17;;;4.10;;
12165;SDS011;6146;48.128;11.476;2023-01-19T15:16:44;7.83;;;4.57;;
12165;SDS011;6146;48.128;11.476;2023-01-19T15:19:10;4.57;;;3.97;;
12165;SDS011;6146;48.128;11.476;2023-01-19T15:21:37;5.67;;;4.17;;
12165;SDS011;6146;48.128;11.476;2023-01-19T15:24:06;5.23;;;4.10;;
12165;SDS011;6146;48.128;11.476;2023-01-19T15:26:35;4.87;;;4.37;;
12165;SDS011;6146;48.128;11.476;2023-01-19T15:29:09;5.53;;;4.30;;
12165;SDS011;6146;48.128;11.476;2023-01-19T15:31:40;5.50;;;4.67;;
12165;SDS011;6146;48.128;11.476;2023-01-19T15:34:07;4.57;;;4.07;;
12165;SDS011;6146;48.128;11.476;2023-01-19T15:36:35;7.00;;;4.73;;
12165;SDS011;6146;48.128;11.476;2023-01-19T15:39:01;5.73;;;5.07;;
12165;SDS011;6146;48.128;11.476;2023-01-19T15:41:27;7.67;;;5.47;;
12165;SDS011;6146;48.128;11.476;2023-01-19T15:43:54;6.40;;;5.03;;
12165;SDS011;6146;48.128;11.476;2023-01-19T15:46:19;6.03;;;5.03;;
12165;SDS011;6146;48.128;11.476;2023-01-19T15:48:46;7.60;;;5.27;;
12165;SDS011;6146;48.128;11.476;2023-01-19T15:51:13;7.03;;;5.07;;
12165;SDS011;6146;48.128;11.476;2023-01-19T15:53:40;7.93;;;5.17;;
12165;SDS011;6146;48.128;11.476;2023-01-19T15:56:13;6.47;;;5.50;;
12165;SDS011;6146;48.128;11.476;2023-01-19T15:58:39;6.20;;;4.97;;
12165;SDS011;6146;48.128;11.476;2023-01-19T16:01:05;6.53;;;4.90;;
12165;SDS011;6146;48.128;11.476;2023-01-19T16:03:36;7.07;;;4.60;;